.
WxDataArchive / Data Records for 2008-08-17
2008-08-16 August 2008 2008-08-18

Data Records for Sunday, 17 August 2008

Time	Temp	Chill	HIndex	Humid	Dewpt	 Wind 	HiWind	WindDir	Rain 	Barom 
-----	----	-----	------	-----	-----	------	------	-------	-----	----- 
00:00	59.5	59.5	59.5	80	53.3	0	0	---	0.00	30.024 
00:05	59.3	59.3	59.3	80	53.1	0	0	---	0.00	30.024 
00:10	59.3	59.3	59.3	80	53.1	0	0	---	0.00	30.024 
00:15	59.2	59.2	59.2	80	53.0	0	0	---	0.00	30.024 
00:20	59.2	59.2	59.2	80	53.0	0	0	---	0.00	30.026 
00:25	59.0	59.0	59.0	81	53.2	0	0	---	0.00	30.026 
00:30	59.0	59.0	59.0	81	53.2	0	0	---	0.00	30.024 
00:35	58.9	58.9	58.9	81	53.1	0	0	---	0.00	30.023 
00:40	58.7	58.7	58.7	81	52.9	0	0	---	0.00	30.021 
00:45	58.6	58.6	58.6	82	53.1	0	0	---	0.00	30.021 
00:50	58.4	58.4	58.4	82	52.9	0	0	---	0.00	30.021 
00:55	58.4	58.4	58.4	83	53.3	0	0	---	0.00	30.022 
01:00	58.3	58.3	58.3	82	52.8	0	0	---	0.00	30.021 
01:05	58.3	58.3	58.3	83	53.2	0	0	---	0.00	30.019 
01:10	58.3	58.3	58.3	82	52.8	0	0	---	0.00	30.019 
01:15	58.1	58.1	58.1	82	52.6	0	0	---	0.00	30.018 
01:20	58.1	58.1	58.1	82	52.6	0	0	---	0.00	30.016 
01:25	58.1	58.1	58.1	82	52.6	0	0	---	0.00	30.014 
01:30	58.1	58.1	58.1	82	52.6	0	0	---	0.00	30.015 
01:35	58.3	58.3	58.3	82	52.8	0	0	---	0.00	30.015 
01:40	58.3	58.3	58.3	82	52.8	0	0	---	0.00	30.013 
01:45	58.3	58.3	58.3	82	52.8	0	0	---	0.00	30.011 
01:50	58.3	58.3	58.3	82	52.8	0	0	---	0.00	30.012 
01:55	58.3	58.3	58.3	82	52.8	0	0	---	0.00	30.010 
02:00	58.3	58.3	58.3	82	52.8	0	0	---	0.00	30.005 
02:05	58.3	58.3	58.3	81	52.5	0	0	---	0.00	30.006 
02:10	58.3	58.3	58.3	82	52.8	0	0	---	0.00	30.006 
02:15	58.3	58.3	58.3	81	52.5	0	0	---	0.00	30.007 
02:20	58.3	58.3	58.3	81	52.5	0	0	---	0.00	30.006 
02:25	58.3	58.3	58.3	81	52.5	0	0	---	0.00	30.006 
02:30	58.4	58.4	58.4	81	52.6	0	0	---	0.00	30.007 
02:35	58.4	58.4	58.4	81	52.6	0	0	---	0.00	30.004 
02:40	58.6	58.6	58.6	81	52.8	0	0	---	0.00	30.005 
02:45	58.7	58.7	58.7	81	52.9	0	0	---	0.00	30.003 
02:50	58.7	58.7	58.7	81	52.9	0	0	---	0.00	30.003 
02:55	58.9	58.9	58.9	81	53.1	0	0	---	0.00	30.003 
03:00	59.2	59.2	59.2	81	53.4	0	1	292	0.00	30.003 
03:05	59.2	59.2	59.2	81	53.4	0	0	---	0.00	30.001 
03:10	59.3	59.3	59.3	81	53.5	0	1	292	0.00	30.002 
03:15	59.6	59.6	59.6	80	53.4	0	1	292	0.00	30.001 
03:20	59.9	59.9	59.9	80	53.7	0	1	292	0.00	30.002 
03:25	60.2	60.2	60.2	79	53.7	0	1	292	0.00	30.002 
03:30	60.4	60.4	60.4	79	53.9	0	1	292	0.00	30.001 
03:35	60.5	60.5	60.5	79	54.0	0	1	292	0.00	29.999 
03:40	60.5	60.5	60.5	79	54.0	0	1	292	0.00	29.998 
03:45	60.7	60.7	60.7	79	54.1	0	1	292	0.00	29.997 
03:50	60.7	60.7	60.7	79	54.1	0	0	---	0.00	29.997 
03:55	60.5	60.5	60.5	79	54.0	0	0	---	0.00	29.995 
04:00	60.5	60.5	60.5	79	54.0	0	0	---	0.00	29.998 
04:05	60.4	60.4	60.4	79	53.9	0	0	---	0.00	29.998 
04:10	60.2	60.2	60.2	80	54.0	0	0	---	0.00	29.996 
04:15	60.1	60.1	60.1	81	54.2	0	0	---	0.00	29.994 
04:20	59.8	59.8	59.8	81	54.0	0	0	---	0.00	29.992 
04:25	59.6	59.6	59.6	81	53.8	0	1	292	0.00	29.999 
04:30	59.6	59.6	59.6	82	54.1	0	0	---	0.00	30.001 
04:35	59.5	59.5	59.5	82	54.0	0	0	---	0.00	30.002 
04:40	59.3	59.3	59.3	83	54.1	0	0	---	0.00	30.002 
04:45	59.2	59.2	59.2	83	54.0	0	0	---	0.00	30.003 
04:50	58.9	58.9	58.9	84	54.1	0	0	---	0.00	30.003 
04:55	58.7	58.7	58.7	84	53.9	0	0	---	0.00	30.003 
05:00	58.4	58.4	58.4	85	53.9	0	0	---	0.00	30.003 
05:05	58.3	58.3	58.3	85	53.8	0	0	---	0.00	30.006 
05:10	58.1	58.1	58.1	86	53.9	0	0	---	0.00	30.007 
05:15	58.0	58.0	58.0	86	53.8	0	0	---	0.00	30.008 
05:20	57.8	57.8	57.8	86	53.6	0	0	---	0.00	30.008 
05:25	57.6	57.6	57.6	87	53.8	0	0	---	0.00	30.008 
05:30	57.5	57.5	57.5	87	53.7	0	0	---	0.00	30.009 
05:35	57.3	57.3	57.3	88	53.8	0	0	---	0.00	30.009 
05:40	57.2	57.2	57.2	88	53.7	0	0	---	0.00	30.010 
05:45	57.0	57.0	57.0	88	53.5	0	0	---	0.00	30.011 
05:50	57.0	57.0	57.0	89	53.8	0	0	---	0.00	30.012 
05:55	56.9	56.9	56.9	89	53.7	0	0	---	0.00	30.010 
06:00	56.9	56.9	56.9	89	53.7	0	0	---	0.00	30.011 
06:05	56.7	56.7	56.7	90	53.8	0	0	---	0.00	30.012 
06:10	56.7	56.7	56.7	90	53.8	0	0	---	0.00	30.014 
06:15	56.7	56.7	56.7	90	53.8	0	0	---	0.00	30.016 
06:20	56.7	56.7	56.7	91	54.1	0	0	---	0.00	30.014 
06:25	56.7	56.7	56.7	91	54.1	0	0	---	0.00	30.015 
06:30	56.9	56.9	56.9	92	54.6	0	0	---	0.00	30.016 
06:35	57.0	57.0	57.0	92	54.7	0	0	---	0.00	30.017 
06:40	57.2	57.2	57.2	92	54.9	0	0	---	0.00	30.018 
06:45	57.5	57.5	57.5	92	55.2	0	0	---	0.00	30.020 
06:50	57.8	57.8	57.8	92	55.5	0	0	---	0.00	30.021 
06:55	58.4	58.4	58.4	93	56.4	0	1	292	0.00	30.020 
07:00	59.2	59.2	59.2	92	56.9	0	1	292	0.00	30.018 
07:05	60.1	60.1	60.1	91	57.5	0	1	292	0.00	30.022 
07:10	60.7	60.7	60.7	89	57.4	0	1	292	0.00	30.021 
07:15	61.2	61.2	61.2	88	57.6	0	1	292	0.00	30.020 
07:20	61.8	61.8	61.8	86	57.6	0	1	292	0.00	30.021 
07:25	62.4	62.4	62.4	84	57.5	0	2	292	0.00	30.020 
07:30	63.1	63.1	63.1	83	57.8	0	1	292	0.00	30.019 
07:35	63.7	63.7	63.7	80	57.4	0	2	292	0.00	30.020 
07:40	64.5	64.5	64.5	78	57.5	1	2	292	0.00	30.020 
07:45	65.2	65.2	65.2	77	57.8	0	2	292	0.00	30.019 
07:50	65.8	65.8	65.8	75	57.6	0	1	292	0.00	30.020 
07:55	66.1	66.1	66.1	74	57.6	0	2	292	0.00	30.021 
08:00	66.1	66.1	66.1	75	57.9	0	1	292	0.00	30.022 
08:05	66.0	66.0	66.0	75	57.8	0	1	292	0.00	30.025 
08:10	66.0	66.0	66.0	75	57.8	0	1	292	0.00	30.026 
08:15	66.3	66.3	66.3	75	58.1	0	1	292	0.00	30.026 
08:20	66.8	66.8	66.8	74	58.2	0	2	292	0.00	30.023 
08:25	67.4	67.4	67.4	72	58.1	0	2	292	0.00	30.022 
08:30	68.3	68.3	68.3	73	59.3	0	1	292	0.00	30.022 
08:35	69.1	69.1	69.1	70	58.9	0	1	292	0.00	30.020 
08:40	69.9	69.9	69.9	67	58.4	0	2	292	0.00	30.019 
08:45	70.6	70.6	70.6	66	58.7	0	2	292	0.00	30.018 
08:50	71.5	71.5	71.5	61	57.3	1	3	292	0.00	30.016 
08:55	72.1	72.1	72.1	60	57.4	1	2	292	0.00	30.017 
09:00	72.8	72.8	72.8	61	58.6	1	2	292	0.00	30.015 
09:05	73.2	73.2	73.2	59	58.0	1	4	315	0.00	30.020 
09:10	73.9	73.9	73.9	58	58.2	1	3	315	0.00	30.018 
09:15	74.4	74.4	74.4	55	57.2	1	3	315	0.00	30.018 
09:20	74.7	74.7	74.7	54	56.9	1	5	248	0.00	30.018 
09:25	74.9	74.9	74.9	54	57.1	1	3	292	0.00	30.017 
09:30	74.7	74.7	74.7	55	57.4	1	3	248	0.00	30.019 
09:35	74.9	74.9	74.9	55	57.6	1	2	248	0.00	30.019 
09:40	75.4	75.4	77.8	53	57.1	1	3	270	0.00	30.019 
09:45	75.8	75.8	78.0	51	56.4	2	4	292	0.00	30.019 
09:50	76.0	76.0	78.1	53	57.6	1	3	270	0.00	30.019 
09:55	76.3	76.3	78.2	51	56.8	2	4	248	0.00	30.019 
10:00	76.8	76.8	78.5	50	56.7	2	4	270	0.00	30.019 
10:05	77.2	77.2	78.7	48	56.0	1	3	270	0.00	30.021 
10:10	77.2	77.2	78.6	47	55.4	2	4	315	0.00	30.022 
10:15	77.6	77.6	79.0	51	58.0	1	4	248	0.00	30.020 
10:20	78.5	78.5	79.4	47	56.6	1	3	248	0.00	30.021 
10:25	78.8	78.8	79.4	44	55.0	1	3	270	0.00	30.018 
10:30	79.2	79.2	79.8	46	56.6	1	3	292	0.00	30.018 
10:35	79.6	79.6	80.0	44	55.7	2	3	292	0.00	30.017 
10:40	79.8	79.8	79.9	41	54.0	2	5	248	0.00	30.017 
10:45	79.8	79.8	79.9	41	54.0	2	5	248	0.00	30.017 
10:50	79.4	79.4	79.7	42	54.3	2	5	248	0.00	30.015 
10:55	79.2	79.2	79.6	43	54.7	2	5	315	0.00	30.013 
11:00	79.4	79.4	79.7	42	54.3	2	4	248	0.00	30.010 
11:05	79.8	79.8	79.9	41	54.0	2	4	248	0.00	30.009 
11:10	80.1	80.1	80.3	43	55.6	1	3	248	0.00	30.006 
11:15	80.3	80.3	80.2	41	54.4	2	6	315	0.00	30.005 
11:20	80.3	80.3	80.4	43	55.7	2	5	248	0.00	30.003 
11:25	80.3	80.3	80.2	41	54.4	2	6	270	0.00	30.003 
11:30	79.6	79.6	79.8	42	54.5	2	4	270	0.00	30.003 
11:35	79.2	79.2	79.5	42	54.1	2	4	292	0.00	30.004 
11:40	78.8	78.8	79.3	42	53.7	1	3	315	0.00	30.003 
11:45	78.3	78.3	79.1	43	53.9	1	4	270	0.00	30.003 
11:50	79.0	79.0	79.5	43	54.6	1	4	270	0.00	30.002 
11:55	79.8	79.8	80.2	45	56.5	1	3	292	0.00	29.996 
12:00	79.8	79.8	79.8	40	53.3	1	3	315	0.00	29.995 
12:05	79.9	79.9	79.9	41	54.1	1	3	315	0.00	29.995 
12:10	80.1	80.1	80.1	41	54.2	1	4	248	0.00	29.991 
12:15	79.9	79.9	80.1	43	55.4	1	4	248	0.00	29.990 
12:20	80.5	80.5	80.5	42	55.3	1	3	270	0.00	29.989 
12:25	81.4	81.4	81.0	40	54.7	1	3	248	0.00	29.988 
12:30	81.8	81.8	81.4	41	55.8	2	4	270	0.00	29.986 
12:35	82.0	82.0	81.3	39	54.6	1	3	292	0.00	29.983 
12:40	82.2	82.2	81.4	38	54.0	2	5	248	0.00	29.983 
12:45	82.4	82.4	81.6	38	54.2	1	2	248	0.00	29.976 
12:50	82.2	82.2	81.4	38	54.0	2	4	270	0.00	29.979 
12:55	82.0	82.0	81.5	40	55.3	2	3	270	0.00	29.978 
13:00	81.8	81.8	81.2	39	54.4	2	4	270	0.00	29.978 
13:05	82.0	82.0	81.5	40	55.3	2	4	270	0.00	29.976 
13:10	82.0	82.0	81.2	38	53.9	1	4	270	0.00	29.972 
13:15	81.4	81.4	80.9	39	54.0	1	5	315	0.00	29.973 
13:20	81.8	81.8	81.1	38	53.7	2	4	292	0.00	29.972 
13:25	82.0	82.0	81.2	38	53.9	1	3	292	0.00	29.971 
13:30	82.6	82.6	81.7	38	54.4	1	3	292	0.00	29.971 
13:35	82.8	82.8	82.0	39	55.3	1	5	270	0.00	29.970 
13:40	82.6	82.6	81.6	37	53.7	3	4	270	0.00	29.970 
13:45	82.4	82.4	81.4	37	53.5	1	3	315	0.00	29.970 
13:50	82.6	82.6	81.6	37	53.7	1	4	248	0.00	29.970 
13:55	82.4	82.4	81.7	39	54.9	2	4	270	0.00	29.970 
14:00	82.4	82.4	81.6	38	54.2	1	4	270	0.00	29.968 
14:05	82.8	82.8	81.8	37	53.8	1	4	270	0.00	29.967 
14:10	83.0	83.0	82.5	41	56.8	1	5	248	0.00	29.967 
14:15	83.4	83.4	82.4	38	55.1	1	4	292	0.00	29.966 
14:20	83.2	83.2	82.1	37	54.2	1	2	315	0.00	29.964 
14:25	83.0	83.0	82.1	38	54.7	2	5	270	0.00	29.964 
14:30	83.2	83.2	82.3	38	54.9	1	5	248	0.00	29.958 
14:35	83.4	83.4	82.3	37	54.4	1	3	270	0.00	29.958 
14:40	83.8	83.8	82.8	38	55.5	1	5	270	0.00	29.955 
14:45	83.8	83.8	82.7	37	54.7	2	4	270	0.00	29.956 
14:50	83.4	83.4	82.4	38	55.1	2	3	315	0.00	29.956 
14:55	83.4	83.4	82.3	37	54.4	2	4	292	0.00	29.954 
15:00	83.2	83.2	82.0	36	53.4	1	3	270	0.00	29.953 
15:05	82.8	82.8	81.9	38	54.6	2	4	270	0.00	29.951 
15:10	82.8	82.8	81.9	38	54.6	2	6	225	0.00	29.951 
15:15	83.2	83.2	82.3	38	54.9	1	3	248	0.00	29.948 
15:20	83.2	83.2	82.4	39	55.6	1	5	270	0.00	29.946 
15:25	83.2	83.2	82.3	38	54.9	2	4	292	0.00	29.944 
15:30	82.6	82.6	81.7	38	54.4	1	3	292	0.00	29.945 
15:35	82.6	82.6	81.8	39	55.1	1	3	270	0.00	29.942 
15:40	82.6	82.6	81.8	39	55.1	2	5	248	0.00	29.947 
15:45	82.6	82.6	82.0	40	55.8	2	5	270	0.00	29.945 
15:50	82.6	82.6	81.8	39	55.1	2	4	270	0.00	29.941 
15:55	82.6	82.6	81.8	39	55.1	1	3	315	0.00	29.939 
16:00	82.0	82.0	81.3	39	54.6	1	3	315	0.00	29.939 
16:05	82.0	82.0	81.3	39	54.6	2	5	315	0.00	29.941 
16:10	81.6	81.6	81.2	41	55.6	1	3	270	0.00	29.940 
16:15	81.8	81.8	81.4	41	55.8	1	4	292	0.00	29.940 
16:20	82.2	82.2	81.5	39	54.7	1	2	270	0.00	29.940 
16:25	82.4	82.4	81.6	38	54.2	1	3	248	0.00	29.940 
16:30	82.4	82.4	81.7	39	54.9	1	4	248	0.00	29.939 
16:35	82.0	82.0	81.5	40	55.3	2	4	270	0.00	29.938 
16:40	81.8	81.8	81.3	40	55.1	1	3	248	0.00	29.937 
16:45	81.6	81.6	81.3	42	56.3	1	4	248	0.00	29.933 
16:50	81.2	81.2	80.9	41	55.2	0	2	270	0.00	29.937 
16:55	81.2	81.2	81.0	42	55.9	1	3	270	0.00	29.935 
17:00	81.2	81.2	81.0	42	55.9	1	3	270	0.00	29.935 
17:05	81.2	81.2	80.9	41	55.2	1	4	270	0.00	29.934 
17:10	80.9	80.9	80.8	42	55.6	1	3	248	0.00	29.933 
17:15	80.5	80.5	80.6	43	55.9	1	3	248	0.00	29.933 
17:20	80.5	80.5	80.6	43	55.9	1	3	248	0.00	29.931 
17:25	80.5	80.5	80.6	43	55.9	1	3	248	0.00	29.930 
17:30	80.3	80.3	80.4	43	55.7	1	3	248	0.00	29.930 
17:35	80.3	80.3	80.4	43	55.7	1	3	248	0.00	29.930 
17:40	80.1	80.1	80.4	45	56.8	1	2	248	0.00	29.930 
17:45	80.1	80.1	80.3	44	56.2	1	3	248	0.00	29.929 
17:50	79.9	79.9	80.3	45	56.6	1	2	270	0.00	29.927 
17:55	79.8	79.8	80.2	45	56.5	1	3	270	0.00	29.928 
18:00	79.6	79.6	80.0	44	55.7	1	2	270	0.00	29.928 
18:05	79.4	79.4	79.9	45	56.2	0	2	270	0.00	29.925 
18:10	79.4	79.4	79.9	45	56.2	0	2	270	0.00	29.925 
18:15	79.2	79.2	79.8	46	56.6	0	2	270	0.00	29.924 
18:20	79.2	79.2	79.8	46	56.6	0	2	270	0.00	29.924 
18:25	79.0	79.0	79.7	46	56.4	1	4	270	0.00	29.925 
18:30	78.8	78.8	79.6	46	56.2	1	3	270	0.00	29.925 
18:35	78.6	78.6	79.4	46	56.1	1	3	315	0.00	29.925 
18:40	78.3	78.3	79.3	47	56.4	1	3	292	0.00	29.924 
18:45	78.1	78.1	79.2	48	56.8	1	2	292	0.00	29.926 
18:50	77.9	77.9	79.1	48	56.6	1	4	292	0.00	29.926 
18:55	77.6	77.6	78.9	48	56.3	0	2	270	0.00	29.927 
19:00	77.4	77.4	78.8	49	56.7	0	2	270	0.00	29.926 
19:05	77.0	77.0	78.6	50	56.9	0	1	270	0.00	29.923 
19:10	76.8	76.8	78.5	50	56.7	0	2	270	0.00	29.924 
19:15	76.7	76.7	78.4	50	56.6	1	3	270	0.00	29.923 
19:20	76.5	76.5	78.3	50	56.5	0	1	270	0.00	29.925 
19:25	76.1	76.1	78.1	51	56.6	0	2	270	0.00	29.923 
19:30	75.8	75.8	78.0	52	56.9	0	2	270	0.00	29.924 
19:35	75.6	75.6	77.9	52	56.7	0	2	270	0.00	29.926 
19:40	75.4	75.4	77.8	53	57.1	0	1	270	0.00	29.927 
19:45	75.1	75.1	77.6	54	57.3	0	1	270	0.00	29.929 
19:50	74.9	74.9	74.9	54	57.1	0	1	270	0.00	29.930 
19:55	74.6	74.6	74.6	55	57.3	0	1	270	0.00	29.930 
20:00	74.2	74.2	74.2	55	57.0	0	0	---	0.00	29.931 
20:05	74.0	74.0	74.0	56	57.3	0	1	270	0.00	29.925 
20:10	73.9	73.9	73.9	56	57.2	0	1	270	0.00	29.924 
20:15	73.7	73.7	73.7	57	57.5	0	1	270	0.00	29.926 
20:20	73.5	73.5	73.5	57	57.3	0	1	270	0.00	29.928 
20:25	73.2	73.2	73.2	58	57.5	0	0	---	0.00	29.931 
20:30	73.0	73.0	73.0	58	57.3	0	0	---	0.00	29.933 
20:35	72.7	72.7	72.7	59	57.5	0	1	270	0.00	29.934 
20:40	72.3	72.3	72.3	60	57.6	0	1	270	0.00	29.934 
20:45	72.1	72.1	72.1	61	57.9	0	1	270	0.00	29.935 
20:50	71.8	71.8	71.8	61	57.6	0	1	270	0.00	29.935 
20:55	71.6	71.6	71.6	62	57.9	0	1	270	0.00	29.935 
21:00	71.5	71.5	71.5	62	57.8	0	1	270	0.00	29.936 
21:05	71.3	71.3	71.3	62	57.6	0	1	270	0.00	29.933 
21:10	71.1	71.1	71.1	63	57.9	0	1	270	0.00	29.933 
21:15	70.9	70.9	70.9	64	58.1	0	1	270	0.00	29.932 
21:20	70.8	70.8	70.8	64	58.0	0	1	270	0.00	29.931 
21:25	70.8	70.8	70.8	64	58.0	0	1	270	0.00	29.932 
21:30	70.9	70.9	70.9	63	57.7	0	1	270	0.00	29.931 
21:35	70.9	70.9	70.9	64	58.1	0	1	270	0.00	29.931 
21:40	70.8	70.8	70.8	64	58.0	0	1	270	0.00	29.931 
21:45	70.6	70.6	70.6	64	57.8	0	1	270	0.00	29.930 
21:50	70.4	70.4	70.4	64	57.6	0	1	270	0.00	29.931 
21:55	70.4	70.4	70.4	65	58.1	0	1	270	0.00	29.932 
22:00	70.3	70.3	70.3	65	58.0	0	1	270	0.00	29.933 
22:05	70.1	70.1	70.1	66	58.2	0	0	---	0.00	29.931 
22:10	69.8	69.8	69.8	66	57.9	0	0	---	0.00	29.931 
22:15	69.6	69.6	69.6	66	57.7	0	1	270	0.00	29.931 
22:20	69.6	69.6	69.6	66	57.7	0	1	270	0.00	29.931 
22:25	69.8	69.8	69.8	65	57.5	0	1	270	0.00	29.932 
22:30	69.6	69.6	69.6	66	57.7	0	1	270	0.00	29.931 
22:35	69.6	69.6	69.6	66	57.7	0	1	270	0.00	29.930 
22:40	69.4	69.4	69.4	66	57.5	0	1	270	0.00	29.929 
22:45	69.4	69.4	69.4	66	57.5	0	1	270	0.00	29.930 
22:50	69.3	69.3	69.3	67	57.9	0	0	---	0.00	29.929 
22:55	68.9	68.9	68.9	67	57.5	0	0	---	0.00	29.931 
23:00	68.6	68.6	68.6	68	57.6	0	0	---	0.00	29.930 
23:05	68.3	68.3	68.3	69	57.7	0	0	---	0.00	29.930 
23:10	67.9	67.9	67.9	70	57.7	0	0	---	0.00	29.930 
23:15	67.6	67.6	67.6	71	57.9	0	0	---	0.00	29.931 
23:20	67.3	67.3	67.3	72	58.0	0	0	---	0.00	29.932 
23:25	66.9	66.9	66.9	73	58.0	0	0	---	0.00	29.932 
23:30	66.8	66.8	66.8	73	57.9	0	0	---	0.00	29.932 
23:35	66.8	66.8	66.8	73	57.9	0	0	---	0.00	29.932 
23:40	66.6	66.6	66.6	73	57.7	0	0	---	0.00	29.932 
23:45	66.4	66.4	66.4	73	57.5	0	0	---	0.00	29.932 
23:50	66.3	66.3	66.3	73	57.4	0	0	---	0.00	29.931 
23:55	66.1	66.1	66.1	74	57.6	0	0	---	0.00	29.930 

CoCoRaHS
IN-AL-39
A2 Web Hosting
Creative Commons License
GoDaddy
Look for:

loaded 2017-12-13 10:04:11 • last modified 2010-11-18 10:43:29
Privacy PolicyDisclaimer
• wx.awcolley.com is powered by PmWiki v.2002016 •
• all content (unless otherwise noted) © 2017 A W Colley